createdAt,value
2022-11-01T00:03:44.416Z,73.80
2022-11-01T00:07:47.257Z,73.70
2022-11-01T00:11:50.264Z,73.60
2022-11-01T00:15:52.948Z,73.70
2022-11-01T00:19:55.992Z,74.20
2022-11-01T00:23:58.769Z,74.70
2022-11-01T00:28:02.096Z,74.70
2022-11-01T00:32:05.196Z,74.60
2022-11-01T00:36:08.985Z,75.00
2022-11-01T00:40:12.246Z,75.20
2022-11-01T00:44:15.133Z,75.30
2022-11-01T00:48:17.951Z,75.20
2022-11-01T00:52:20.995Z,75.10
2022-11-01T00:56:23.761Z,74.90
2022-11-01T01:00:26.601Z,75.00
2022-11-01T01:04:29.435Z,75.00
2022-11-01T01:08:32.423Z,75.10
2022-11-01T01:12:35.426Z,75.10
2022-11-01T01:16:38.366Z,75.00
2022-11-01T01:20:41.251Z,74.90
2022-11-01T01:24:45.799Z,75.00
2022-11-01T01:28:48.597Z,75.10
2022-11-01T01:32:51.501Z,75.20
2022-11-01T01:36:54.269Z,75.20
2022-11-01T01:41:20.188Z,75.40
2022-11-01T01:45:36.240Z,75.80
2022-11-01T01:49:42.495Z,76.20
2022-11-01T01:53:49.269Z,75.80
2022-11-01T01:57:54.582Z,75.90
2022-11-01T02:01:59.185Z,75.70
2022-11-01T02:06:11.096Z,75.70
2022-11-01T02:10:15.888Z,75.90
2022-11-01T02:14:21.006Z,75.80
2022-11-01T02:18:45.301Z,75.90
2022-11-01T02:23:06.388Z,76.00
2022-11-01T02:27:20.801Z,76.00
2022-11-01T02:31:46.041Z,76.00
2022-11-01T02:36:13.585Z,76.50
2022-11-01T02:40:43.506Z,76.40
2022-11-01T02:44:53.831Z,76.30
2022-11-01T02:48:57.989Z,76.20
2022-11-01T02:53:02.028Z,75.90
2022-11-01T02:57:36.470Z,75.70
2022-11-01T03:01:50.958Z,75.60
2022-11-01T03:06:11.679Z,75.50
2022-11-01T03:10:14.959Z,75.70
2022-11-01T03:15:02.709Z,75.60
2022-11-01T03:19:36.918Z,75.70
2022-11-01T03:23:49.955Z,76.00
2022-11-01T03:27:53.797Z,75.90
2022-11-01T03:31:58.071Z,75.80
2022-11-01T03:36:13.514Z,75.80
2022-11-01T03:40:18.796Z,76.30
2022-11-01T03:44:22.146Z,76.00
2022-11-01T03:48:25.485Z,76.20
2022-11-01T03:52:28.292Z,76.50
2022-11-01T03:56:31.212Z,76.40
2022-11-01T04:00:37.500Z,76.30
2022-11-01T04:04:40.367Z,76.30
2022-11-01T04:08:43.224Z,76.20
2022-11-01T04:12:47.611Z,76.30
2022-11-01T04:17:08.928Z,76.40
2022-11-01T04:21:16.228Z,76.50
2022-11-01T04:25:19.036Z,76.50
2022-11-01T04:29:22.882Z,76.40
2022-11-01T04:33:25.694Z,76.30
2022-11-01T04:37:28.547Z,76.40
2022-11-01T04:41:31.471Z,76.50
2022-11-01T04:45:34.358Z,76.30
2022-11-01T04:49:37.350Z,76.20
2022-11-01T04:53:40.454Z,76.10
2022-11-01T04:57:44.433Z,76.00
2022-11-01T05:01:47.311Z,76.00
2022-11-01T05:05:50.470Z,76.00
2022-11-01T05:09:53.524Z,76.00
2022-11-01T05:13:57.310Z,76.00
2022-11-01T05:18:01.836Z,76.10
2022-11-01T05:22:05.195Z,76.10
2022-11-01T05:26:08.238Z,76.20
2022-11-01T05:30:11.587Z,76.40
2022-11-01T05:34:14.448Z,76.30
2022-11-01T05:38:17.275Z,76.20
2022-11-01T05:42:20.127Z,76.30
2022-11-01T05:46:23.703Z,76.20
2022-11-01T05:50:26.442Z,76.30
2022-11-01T05:54:29.851Z,76.20
2022-11-01T05:58:32.649Z,76.40
2022-11-01T06:02:35.514Z,76.80
2022-11-01T06:06:38.273Z,76.90
2022-11-01T06:10:41.041Z,76.90
2022-11-01T06:14:43.868Z,76.90
2022-11-01T06:18:46.927Z,76.80
2022-11-01T06:22:49.672Z,76.80
2022-11-01T06:26:52.409Z,76.80
2022-11-01T06:30:55.184Z,76.60
2022-11-01T06:34:58.107Z,76.40
2022-11-01T06:39:00.849Z,76.60
2022-11-01T06:43:06.182Z,76.50
2022-11-01T06:47:09.439Z,76.40
2022-11-01T06:51:12.258Z,76.40
2022-11-01T06:55:15.504Z,76.50
2022-11-01T06:59:18.488Z,76.80
2022-11-01T07:03:21.435Z,76.80
2022-11-01T07:07:24.425Z,76.80
2022-11-01T07:11:31.462Z,76.80
2022-11-01T07:15:35.448Z,76.70
2022-11-01T07:19:42.522Z,76.70
2022-11-01T07:23:45.585Z,76.80
2022-11-01T07:27:48.645Z,76.40
2022-11-01T07:31:51.493Z,76.50
2022-11-01T07:35:54.513Z,76.30
2022-11-01T07:39:57.661Z,76.20
2022-11-01T07:44:00.612Z,76.20
2022-11-01T07:48:10.537Z,76.20
2022-11-01T07:52:14.430Z,76.50
2022-11-01T07:56:17.434Z,76.00
2022-11-01T08:00:20.499Z,76.00
2022-11-01T08:04:24.693Z,76.00
2022-11-01T08:08:27.608Z,75.90
2022-11-01T08:12:30.388Z,75.80
2022-11-01T08:16:33.339Z,75.80
2022-11-01T08:20:36.421Z,75.30
2022-11-01T08:24:39.290Z,75.20
2022-11-01T08:28:42.885Z,74.70
2022-11-01T08:32:57.167Z,74.40
2022-11-01T08:37:00.071Z,74.60
2022-11-01T08:41:02.988Z,74.50
2022-11-01T08:45:07.508Z,74.30
2022-11-01T08:49:12.196Z,74.20
2022-11-01T08:53:15.449Z,74.30
2022-11-01T08:57:18.342Z,73.80
2022-11-01T09:01:24.122Z,73.50
2022-11-01T09:05:29.580Z,73.30
2022-11-01T09:09:32.810Z,73.10
2022-11-01T09:13:35.929Z,73.20
2022-11-01T09:17:39.117Z,72.70
2022-11-01T09:21:44.274Z,72.40
2022-11-01T09:25:47.155Z,72.30
2022-11-01T09:29:51.989Z,71.80
2022-11-01T09:33:57.179Z,71.40
2022-11-01T09:38:01.662Z,71.10
2022-11-01T09:42:11.072Z,70.70
2022-11-01T09:46:17.651Z,70.30
2022-11-01T09:50:39.947Z,70.20
2022-11-01T09:54:42.814Z,69.80
2022-11-01T09:58:51.547Z,68.90
2022-11-01T10:03:33.860Z,68.70
2022-11-01T10:07:47.817Z,68.40
2022-11-01T10:12:11.774Z,67.80
2022-11-01T10:16:30.180Z,67.80
2022-11-01T10:20:39.219Z,67.70
2022-11-01T10:24:57.968Z,67.10
2022-11-01T10:29:13.975Z,66.50
2022-11-01T10:33:26.077Z,66.40
2022-11-01T10:38:04.338Z,65.70
2022-11-01T10:42:17.706Z,65.60
2022-11-01T10:46:30.000Z,64.50
2022-11-01T10:50:34.256Z,63.80
2022-11-01T10:54:41.216Z,63.40
2022-11-01T10:58:53.440Z,62.60
2022-11-01T11:02:58.793Z,62.30
2022-11-01T11:07:02.420Z,61.90
2022-11-01T11:11:10.908Z,61.00
2022-11-01T11:15:23.432Z,60.80
2022-11-01T11:19:39.032Z,60.10
2022-11-01T11:23:45.106Z,59.40
2022-11-01T11:27:53.104Z,58.40
2022-11-01T11:31:59.394Z,57.10
2022-11-01T11:36:03.599Z,57.30
2022-11-01T11:40:22.462Z,56.60
2022-11-01T11:44:34.458Z,56.70
2022-11-01T11:48:47.717Z,55.40
2022-11-01T11:53:26.458Z,55.30
2022-11-01T11:57:30.463Z,56.30
2022-11-01T12:01:34.472Z,55.70
2022-11-01T12:05:37.859Z,55.80
2022-11-01T12:09:45.404Z,55.50
2022-11-01T12:14:02.859Z,55.10
2022-11-01T12:18:19.532Z,55.90
2022-11-01T12:22:22.646Z,55.10
2022-11-01T12:26:27.392Z,54.60
2022-11-01T12:30:35.855Z,53.40
2022-11-01T12:34:42.923Z,52.70
2022-11-01T12:38:55.643Z,52.20
2022-11-01T12:43:24.156Z,50.30
2022-11-01T12:47:44.326Z,49.30
2022-11-01T12:51:56.058Z,49.10
2022-11-01T12:55:59.445Z,48.30
2022-11-01T13:00:02.668Z,49.30
2022-11-01T13:04:26.504Z,49.90
2022-11-01T13:08:59.117Z,49.60
2022-11-01T13:13:21.391Z,50.30
2022-11-01T13:17:34.316Z,49.50
2022-11-01T13:21:42.634Z,49.20
2022-11-01T13:26:20.512Z,49.50
2022-11-01T13:30:23.906Z,49.90
2022-11-01T13:35:06.812Z,48.70
2022-11-01T13:39:38.163Z,48.70
2022-11-01T13:43:51.488Z,48.70
2022-11-01T13:48:08.619Z,47.90
2022-11-01T13:52:28.829Z,48.00
2022-11-01T13:56:37.101Z,48.90
2022-11-01T14:00:45.189Z,49.50
2022-11-01T14:05:02.067Z,49.70
2022-11-01T14:09:26.144Z,50.40
2022-11-01T14:13:45.775Z,50.50
2022-11-01T14:17:52.516Z,51.30
2022-11-01T14:21:57.811Z,51.10
2022-11-01T14:26:20.089Z,52.00
2022-11-01T14:30:24.907Z,51.70
2022-11-01T14:34:35.435Z,51.80
2022-11-01T14:38:53.804Z,52.00
2022-11-01T14:43:11.627Z,52.00
2022-11-01T14:47:34.690Z,51.40
2022-11-01T14:51:41.980Z,51.30
2022-11-01T14:55:48.456Z,50.90
2022-11-01T14:59:52.097Z,49.80
2022-11-01T15:03:58.190Z,50.40
2022-11-01T15:08:01.571Z,49.50
2022-11-01T15:12:08.582Z,50.50
2022-11-01T15:16:17.653Z,51.10
2022-11-01T15:20:21.676Z,51.90
2022-11-01T15:24:28.503Z,52.50
2022-11-01T15:28:41.322Z,53.10
2022-11-01T15:32:44.466Z,53.20
2022-11-01T15:36:50.151Z,53.60
2022-11-01T15:40:53.728Z,54.00
2022-11-01T15:45:26.773Z,53.60
2022-11-01T15:49:50.094Z,53.90
2022-11-01T15:54:01.264Z,54.30
2022-11-01T16:09:45.820Z,55.10
2022-11-01T16:14:08.759Z,55.50
2022-11-01T16:18:27.039Z,55.60
2022-11-01T16:22:39.052Z,55.80
2022-11-01T16:27:13.155Z,55.80
2022-11-01T16:31:42.992Z,56.00
2022-11-01T16:36:56.296Z,56.50
2022-11-01T16:41:26.807Z,56.60
2022-11-01T16:45:44.937Z,57.10
2022-11-01T16:50:45.799Z,57.60
2022-11-01T16:55:05.714Z,57.90
2022-11-01T16:59:34.823Z,58.80
2022-11-01T17:03:41.685Z,59.00
2022-11-01T17:07:46.002Z,59.30
2022-11-01T17:11:51.692Z,59.40
2022-11-01T17:15:59.773Z,59.60
2022-11-01T17:20:04.666Z,59.60
2022-11-01T17:24:19.940Z,59.50
2022-11-01T17:28:33.988Z,59.60
2022-11-01T17:33:36.338Z,59.70
2022-11-01T17:37:17.621Z,59.80
2022-11-01T17:41:21.861Z,60.00
2022-11-01T17:45:25.035Z,60.00
2022-11-01T17:49:28.081Z,60.40
2022-11-01T17:53:31.691Z,60.70
2022-11-01T17:57:37.288Z,60.90
2022-11-01T18:01:43.505Z,60.60
2022-11-01T18:05:47.586Z,60.40
2022-11-01T18:09:50.915Z,60.20
2022-11-01T18:14:18.285Z,60.30
2022-11-01T18:18:39.251Z,60.20
2022-11-01T18:22:45.291Z,60.50
2022-11-01T18:26:49.966Z,60.70
2022-11-01T18:31:02.192Z,60.70
2022-11-01T18:35:30.653Z,60.60
2022-11-01T18:39:48.300Z,60.50
2022-11-01T18:43:53.079Z,60.40
2022-11-01T18:48:26.043Z,60.70
2022-11-01T18:52:35.951Z,60.80
2022-11-01T18:56:51.827Z,61.50
2022-11-01T19:01:12.045Z,61.80
2022-11-01T19:05:19.097Z,62.20
2022-11-01T19:09:24.768Z,62.80
2022-11-01T19:13:34.954Z,63.00
2022-11-01T19:17:41.544Z,63.40
2022-11-01T19:21:44.820Z,63.50
2022-11-01T19:25:48.065Z,63.70
2022-11-01T19:29:57.676Z,63.80
2022-11-01T19:34:04.227Z,63.90
2022-11-01T19:38:14.654Z,64.30
2022-11-01T19:42:43.362Z,64.50
2022-11-01T19:46:46.079Z,64.30
2022-11-01T19:50:49.220Z,64.40
2022-11-01T19:54:53.376Z,64.80
2022-11-01T19:58:58.918Z,65.00
2022-11-01T20:03:06.295Z,65.20
2022-11-01T20:07:16.576Z,65.70
2022-11-01T20:11:20.055Z,66.00
2022-11-01T20:15:23.267Z,66.10
2022-11-01T20:19:29.556Z,66.10
2022-11-01T20:23:36.728Z,66.30
2022-11-01T20:27:40.194Z,66.60
2022-11-01T20:31:43.248Z,66.70
2022-11-01T20:35:46.200Z,66.80
2022-11-01T20:39:49.109Z,66.80
2022-11-01T20:43:51.924Z,66.80
2022-11-01T20:47:55.307Z,66.80
2022-11-01T20:52:13.427Z,66.70
2022-11-01T20:56:20.995Z,66.60
2022-11-01T21:00:23.881Z,66.50
2022-11-01T21:04:26.618Z,66.50
2022-11-01T21:08:33.615Z,66.60
2022-11-01T21:12:50.090Z,66.90
2022-11-01T21:16:55.824Z,67.10
2022-11-01T21:21:01.519Z,66.30
2022-11-01T21:25:08.116Z,67.40
2022-11-01T21:29:27.308Z,67.40
2022-11-01T21:33:38.014Z,67.70
2022-11-01T21:37:40.829Z,68.00
2022-11-01T21:41:48.644Z,67.80
2022-11-01T21:45:51.880Z,67.90
2022-11-01T21:49:54.600Z,67.90
2022-11-01T21:54:00.184Z,67.90
2022-11-01T21:58:06.256Z,67.60
2022-11-01T22:02:11.868Z,67.30
2022-11-01T22:06:15.230Z,67.20
2022-11-01T22:10:18.085Z,67.00
2022-11-01T22:14:21.547Z,67.00
2022-11-01T22:18:25.376Z,67.00
2022-11-01T22:22:28.140Z,67.00
2022-11-01T22:26:30.982Z,67.30
2022-11-01T22:30:33.742Z,67.40
2022-11-01T22:34:36.489Z,67.40
2022-11-01T22:38:44.323Z,67.50
2022-11-01T22:42:57.375Z,67.70
2022-11-01T22:47:02.017Z,67.90
2022-11-01T22:51:17.134Z,67.80
2022-11-01T22:55:25.348Z,67.90
2022-11-01T22:59:33.827Z,68.00
2022-11-01T23:03:39.956Z,68.10
2022-11-01T23:07:46.503Z,68.00
2022-11-01T23:12:13.327Z,67.90
2022-11-01T23:16:32.712Z,68.00
2022-11-01T23:20:35.667Z,68.10
2022-11-01T23:24:38.338Z,68.50
2022-11-01T23:28:46.491Z,68.70
2022-11-01T23:32:49.240Z,69.00
2022-11-01T23:36:52.348Z,69.00
2022-11-01T23:40:55.189Z,69.10
2022-11-01T23:44:58.436Z,69.50
2022-11-01T23:49:10.055Z,69.90
2022-11-01T23:53:14.897Z,70.10
2022-11-01T23:57:20.669Z,70.10
